Terminal Aerodrome Forecast
Issued by NWS

Home | Current Version | Previous Version | Text Only | Print | Product List | Glossary On
Versions: 1 2 3 4 5 6 7 8 9 10 11 12 13 14 15 16 17 18 19
000
FTUS42 KGSP 241100
TAFAND
TAF
KAND 241122Z 2412/2512 25003KT P6SM BKN250
     FM241400 24009KT P6SM SCT040 BKN250
     FM242000 24012KT P6SM BKN060
      TEMPO 2420/2423 VRB10G15KT 4SM TSRA BKN040CB
     FM250400 24006KT P6SM SCT250
     FM251000 30003KT P6SM SCT250=

USA.gov is the U.S. government's official web portal to all federal, state and local government web resources and services.